Řízení letového provozu České republiky
Letiste: LKKV Aktualizace: 30.06.2016 17:08:09  UTC
 METAR LKKV 30.06. 17:00 ...
METAR LKKV 301700Z 28007KT 240V320 9999 FEW038 21/13 Q1016 RMK REG QNH 1011=
 TAF LKKV 30.06. 11:00 ...
TAF LKKV 301100Z 3012/0118 25006KT 9999 SCT040      TEMPO 3012/3018 7000 SHRA SCT030TCU      PROB30 TEMPO 3013/3018 2000 TSRA SCT030CB      PROB30 TEMPO 0110/0118 SHRA SCT030TCU=